Latest Weather Observations for Noonamah

IDD60901

Issued at 4:51 pm CST Wednesday 25 May 2016 (issued every 10 minutes, with the page automatically refreshed every 10 minutes)

About weather observations | Map of Darwin area stations | Latest observations for Darwin area | Other Formats
Station Details ID: 014314 Name: NOONAMAH AIRSTRIP Lat: -12.61 Lon: 131.05 Height: 17.5 m
Data from the previous 72 hours. | See also: Recent months at Noonamah
Date/Time
CST
Tmp

°C
App
Tmp
°C
Dew
Point
°C
Rel
Hum
%
Delta-T

°C
Wind Press
QNH
hPa
Press
MSL
hPa
Rain
since
9 am
mm
Dir
 
Spd
km/h
Gust
km/h
Spd
kts
Gust
kts
25/04:30pm 33.5 37.2 23.2 54 7.1 NNW 9 17 5 9 1009.0 1008.8 0.0
25/04:00pm 35.4 38.0 19.3 38 10.7 NE 4 9 2 5 1008.8 1008.6 0.0
25/03:30pm 35.2 37.4 19.6 40 10.4 NNE 7 15 4 8 1009.0 1008.8 0.0
25/03:00pm 34.6 36.3 18.6 38 10.5 NE 7 13 4 7 1009.1 1008.9 0.0
25/02:30pm 35.1 37.1 19.1 39 10.6 E 7 15 4 8 1009.3 1009.2 0.0
25/02:00pm 33.9 37.0 21.0 47 8.7 E 6 9 3 5 1009.8 1009.7 0.0
25/01:30pm 33.4 35.6 20.5 46 8.6 NE 9 13 5 7 1010.4 1010.3 0.0
25/01:00pm 33.5 36.5 21.3 48 8.2 NE 7 15 4 8 1010.9 1010.8 0.0
25/12:30pm 32.9 36.2 21.4 50 7.8 NNE 6 9 3 5 1011.3 1011.2 0.0
25/12:00pm 33.0 36.5 21.8 51 7.6 ENE 6 11 3 6 1011.8 1011.7 0.0
25/11:30am 31.8 35.7 22.5 58 6.4 SE 6 9 3 5 1012.2 1012.1 0.0
25/11:00am 31.3 35.3 22.0 57 6.3 NNW 4 7 2 4 1012.5 1012.4 0.0
25/10:30am 31.3 35.2 22.6 60 5.9 ENE 6 9 3 5 1012.8 1012.7 0.0
25/10:00am 30.2 34.9 23.4 67 4.7 WNW 4 11 2 6 1013.1 1013.0 0.0
25/09:30am 29.5 34.6 23.4 69 4.2 NNW 2 4 1 2 1013.1 1013.0 0.0
25/09:00am 28.5 34.3 23.9 76 3.2 CALM 0 2 0 1 1013.0 1012.9 0.0
25/08:30am 26.9 32.3 24.5 87 1.7 NE 4 6 2 3 1012.8 1012.7 0.0
25/08:00am 25.1 30.8 23.7 92 1.0 CALM 0 0 0 0 1012.6 1012.5 0.0
25/07:30am 23.7 28.8 22.7 94 0.7 CALM 0 0 0 0 1012.2 1012.1 0.0
25/07:00am 23.7 28.2 22.9 95 0.5 SE 4 4 2 2 1012.1 1012.0 0.0
25/06:30am 23.6 28.7 22.6 94 0.7 CALM 0 0 0 0 1011.8 1011.7 0.0
25/06:00am 23.6 28.5 22.4 93 0.8 CALM 0 0 0 0 1011.5 1011.4 0.0
25/05:30am 23.7 28.8 22.7 94 0.7 CALM 0 0 0 0 1011.2 1011.1 0.0
25/05:00am 23.8 28.6 22.8 94 0.7 NE 2 2 1 1 1011.1 1011.0 0.0
25/04:30am 24.1 29.2 22.7 92 0.9 CALM 0 0 0 0 1010.9 1010.8 0.0
25/04:00am 24.3 29.5 22.9 92 0.9 CALM 0 0 0 0 1010.9 1010.8 0.0
25/03:30am 24.7 29.4 23.3 92 1.0 SSW 4 4 2 2 1010.9 1010.8 0.0
25/03:00am 24.7 30.0 23.1 91 1.1 CALM 0 0 0 0 1011.1 1011.0 0.0
25/02:30am 24.6 30.0 23.2 92 0.9 CALM 0 0 0 0 1011.4 1011.3 0.0
25/02:00am 24.8 29.8 23.2 91 1.1 SSE 2 6 1 3 1011.6 1011.5 0.0
25/01:30am 25.0 30.5 23.4 91 1.1 CALM 0 0 0 0 1011.6 1011.5 0.0
25/01:00am 25.3 30.8 23.4 89 1.3 CALM 0 0 0 0 1011.8 1011.7 0.0
25/12:30am 25.5 31.1 23.6 89 1.3 CALM 0 0 0 0 1012.0 1011.9 0.0
25/12:00am 25.7 31.2 23.4 87 1.6 CALM 0 0 0 0 1012.2 1012.1 0.0
 
Date/Time
CST
Tmp

°C
App
Tmp
°C
Dew
Point
°C
Rel
Hum
%
Delta-T

°C
Wind Press
QNH
hPa
Press
MSL
hPa
Rain
since
9 am
mm
Dir
 
Spd
km/h
Gust
km/h
Spd
kts
Gust
kts
24/11:30pm 25.9 31.5 23.6 87 1.6 CALM 0 0 0 0 1012.3 1012.2 0.0
24/11:00pm 26.1 31.7 23.6 86 1.7 CALM 0 0 0 0 1012.1 1012.0 0.0
24/10:30pm 26.2 31.9 23.7 86 1.7 CALM 0 0 0 0 1012.1 1012.0 0.0
24/10:00pm 26.3 31.8 23.4 84 2.0 CALM 0 0 0 0 1012.1 1012.0 0.0
24/09:30pm 26.5 31.6 23.4 83 2.1 N 2 4 1 2 1011.9 1011.8 0.0
24/09:00pm 27.0 32.1 23.3 80 2.5 NW 2 2 1 1 1011.8 1011.7 0.0
24/08:30pm 27.8 32.4 23.2 76 3.1 W 4 4 2 2 1011.3 1011.2 0.0
24/08:00pm 28.0 32.6 23.2 75 3.3 WNW 4 6 2 3 1011.0 1010.9 0.0
24/07:30pm 28.4 32.5 22.9 72 3.8 WNW 6 7 3 4 1010.7 1010.6 0.0
24/07:00pm 29.2 33.0 22.4 66 4.6 WNW 6 9 3 5 1010.4 1010.3 0.0
24/06:30pm 29.8 33.5 22.3 64 5.1 NW 6 7 3 4 1010.1 1010.0 0.0
24/06:00pm 31.3 34.6 21.8 57 6.4 WNW 7 9 4 5 1009.8 1009.7 0.0
24/05:30pm 32.3 35.4 22.1 55 7.0 NW 9 17 5 9 1009.4 1009.3 0.0
24/05:00pm 33.3 36.5 22.4 52 7.5 WNW 9 15 5 8 1009.2 1009.1 0.0
24/04:30pm 33.6 37.1 22.1 51 7.9 WNW 7 13 4 7 1009.2 1009.1 0.0
24/04:00pm 33.9 36.1 19.2 42 9.7 WNW 6 7 3 4 1009.1 1008.9 0.0
24/03:30pm 34.0 36.4 19.6 42 9.5 N 6 11 3 6 1009.3 1009.2 0.0
24/03:00pm 34.0 35.8 19.6 42 9.5 NE 9 15 5 8 1009.5 1009.4 0.0
24/02:30pm 34.9 37.1 19.7 41 10.1 ENE 7 11 4 6 1009.8 1009.7 0.0
24/02:00pm 33.8 36.1 19.8 43 9.3 NNE 7 11 4 6 1010.4 1010.3 0.0
24/01:30pm 33.0 36.0 20.9 49 8.1 ENE 6 11 3 6 1010.9 1010.8 0.0
24/01:00pm 32.3 35.0 20.2 48 8.0 E 6 9 3 5 1011.7 1011.6 0.0
24/12:30pm 33.0 35.8 20.9 49 8.1 NNE 7 15 4 8 1012.1 1012.0 0.0
24/12:00pm 32.7 35.4 20.6 49 8.1 NNE 7 17 4 9 1012.5 1012.4 0.0
24/11:30am 32.2 35.1 21.1 52 7.5 NNW 7 15 4 8 1012.9 1012.8 0.0
24/11:00am 32.0 35.6 22.1 55 6.7 NE 6 13 3 7 1013.4 1013.3 0.0
24/10:30am 30.9 35.2 23.3 64 5.2 ENE 6 9 3 5 1013.5 1013.4 0.0
24/10:00am 30.3 34.3 22.7 64 5.2 N 6 9 3 5 1013.5 1013.4 0.0
24/09:30am 29.4 33.3 22.6 67 4.6 NNE 6 9 3 5 1013.5 1013.4 0.0
24/09:00am 26.3 30.6 22.6 80 2.5 ESE 4 6 2 3 1013.5 1013.4 0.0
24/08:30am 25.6 30.1 22.3 82 2.2 ENE 2 4 1 2 1013.2 1013.1 0.0
24/08:00am 25.0 29.7 21.9 83 2.1 CALM 0 0 0 0 1013.0 1012.9 0.0
24/07:30am 24.5 29.3 22.2 87 1.5 CALM 0 0 0 0 1012.4 1012.3 0.0
24/07:00am 24.4 28.7 21.9 86 1.7 NNE 2 4 1 2 1012.1 1012.0 0.0
24/06:30am 24.8 29.6 22.1 85 1.8 CALM 0 0 0 0 1011.9 1011.8 0.0
24/06:00am 24.9 29.7 22.2 85 1.8 CALM 0 0 0 0 1012.0 1011.9 0.0
24/05:30am 24.8 28.7 22.5 87 1.5 NNE 6 11 3 6 1011.6 1011.5 0.0
24/05:00am 25.2 30.1 23.1 88 1.4 N 2 4 1 2 1011.3 1011.2 0.0
24/04:30am 25.3 29.9 23.2 88 1.4 N 4 6 2 3 1011.2 1011.1 0.0
24/04:00am 25.6 30.6 23.8 90 1.2 N 4 6 2 3 1011.3 1011.2 0.0
24/03:30am 25.7 31.6 24.1 91 1.1 CALM 0 0 0 0 1011.3 1011.2 0.0
24/03:00am 25.5 31.0 24.1 92 1.0 N 2 4 1 2 1011.5 1011.4 0.0
24/02:30am 25.6 31.2 24.2 92 1.0 NW 2 4 1 2 1011.6 1011.5 0.0
24/02:00am 26.0 31.7 24.4 91 1.1 E 2 2 1 1 1011.7 1011.6 0.0
24/01:30am 25.8 31.5 23.8 89 1.4 CALM 0 0 0 0 1012.0 1011.9 0.0
24/01:00am 26.1 32.0 24.1 89 1.4 CALM 0 0 0 0 1011.9 1011.8 0.0
24/12:30am 26.4 31.9 24.1 87 1.6 NW 2 4 1 2 1012.1 1012.0 0.0
24/12:00am 26.7 32.5 24.0 85 1.9 CALM 0 2 0 1 1012.2 1012.1 0.0
 
Date/Time
CST
Tmp

°C
App
Tmp
°C
Dew
Point
°C
Rel
Hum
%
Delta-T

°C
Wind Press
QNH
hPa
Press
MSL
hPa
Rain
since
9 am
mm
Dir
 
Spd
km/h
Gust
km/h
Spd
kts
Gust
kts
23/11:30pm 27.2 32.1 24.3 84 2.0 WSW 6 7 3 4 1012.2 1012.1 0.0
23/11:00pm 27.1 32.2 24.6 86 1.7 WSW 6 7 3 4 1012.1 1012.0 0.0
23/10:30pm 27.0 33.0 24.3 85 1.9 CALM 0 4 0 2 1012.0 1011.9 0.0
23/10:00pm 27.2 33.2 24.3 84 2.0 CALM 0 2 0 1 1012.2 1012.1 0.0
23/09:30pm 27.2 32.7 24.1 83 2.1 W 2 6 1 3 1012.0 1011.9 0.0
23/09:00pm 27.6 33.1 24.0 81 2.5 WNW 2 4 1 2 1011.4 1011.3 0.0
23/08:30pm 28.0 33.2 24.2 80 2.6 NW 4 6 2 3 1011.1 1011.0 0.0
23/08:00pm 28.2 33.4 24.2 79 2.8 NW 4 6 2 3 1010.4 1010.3 0.0
23/07:30pm 28.7 33.4 24.0 76 3.3 NNW 6 7 3 4 1009.9 1009.8 0.0
23/07:00pm 29.4 33.8 23.8 72 3.9 NNW 7 17 4 9 1009.6 1009.5 0.0
23/06:30pm 30.5 34.3 23.4 66 4.9 NNW 9 15 5 8 1009.6 1009.5 0.0
23/06:00pm 32.1 36.0 23.6 60 5.9 NNW 9 15 5 8 1009.0 1008.8 0.0
23/05:30pm 34.8 37.4 19.2 39 10.3 NNE 4 6 2 3 1008.6 1008.4 0.0
23/05:00pm 35.1 37.2 18.2 36 11.0 ENE 4 7 2 4 1008.3 1008.1 0.0
23/04:30pm 35.7 38.4 18.7 36 11.2 E 2 4 1 2 1008.1 1007.9 0.0
23/04:00pm 35.3 37.3 18.8 37 10.8 SSE 6 11 3 6 1008.0 1007.8 0.0
23/03:30pm 35.4 36.9 18.9 37 10.9 SE 9 15 5 8 1008.2 1008.0 0.0
23/03:00pm 35.0 36.4 18.6 38 10.8 E 9 15 5 8 1008.5 1008.3 0.0
23/02:30pm 35.1 36.3 19.1 39 10.6 NE 11 20 6 11 1008.8 1008.6 0.0
23/02:00pm 34.9 36.6 19.3 40 10.3 SE 9 17 5 9 1009.3 1009.2 0.0
23/01:30pm 34.6 36.7 20.2 43 9.6 SSE 9 20 5 11 1009.9 1009.8 0.0
23/01:00pm 34.2 36.3 20.9 45 9.0 SSE 11 22 6 12 1010.6 1010.5 0.0
23/12:30pm 33.4 35.5 20.2 46 8.8 E 9 20 5 11 1011.4 1011.3 0.0
23/12:00pm 33.2 35.8 22.0 51 7.6 SE 11 22 6 12 1011.9 1011.8 0.0
23/11:30am 32.6 35.7 22.1 54 7.2 SSE 9 13 5 7 1012.4 1012.3 0.0
23/11:00am 32.1 35.2 22.2 56 6.7 SE 9 15 5 8 1012.8 1012.7 0.0
23/10:30am 31.7 34.4 22.1 56 6.5 SE 11 20 6 11 1012.9 1012.8 0.0
23/10:00am 31.3 34.6 22.6 60 5.9 S 9 13 5 7 1013.0 1012.9 0.0
23/09:30am 30.4 34.8 23.8 68 4.6 S 7 13 4 7 1013.1 1013.0 0.0
23/09:00am 28.8 33.6 24.4 77 3.1 SSW 7 11 4 6 1012.9 1012.8 0.0
23/08:30am 27.4 32.3 24.3 83 2.1 SSW 6 9 3 5 1012.9 1012.8 0.0
23/08:00am 26.6 32.3 24.4 88 1.5 SSE 2 4 1 2 1012.8 1012.7 0.0
23/07:30am 25.1 30.1 23.9 93 0.8 S 4 6 2 3 1012.6 1012.5 0.0
23/07:00am 24.6 29.1 23.7 95 0.6 SSW 6 9 3 5 1012.2 1012.1 0.0
23/06:30am 24.1 28.5 23.4 96 0.5 S 6 9 3 5 1011.7 1011.6 0.0
23/06:00am 23.7 28.2 22.9 95 0.5 S 4 6 2 3 1011.5 1011.4 0.0
23/05:30am 23.9 28.4 23.0 95 0.6 SSW 4 6 2 3 1011.5 1011.4 0.0
23/05:00am 23.9 29.1 22.9 94 0.7 CALM 0 0 0 0 1011.6 1011.5 0.0
23/04:30am 23.9 29.0 22.7 93 0.8 CALM 0 0 0 0 1011.5 1011.4 0.0
23/04:00am 24.2 29.5 23.0 93 0.8 CALM 0 0 0 0 1011.5 1011.4 0.0
23/03:30am 24.5 29.7 22.9 91 1.1 CALM 0 0 0 0 1011.7 1011.6 0.0
23/03:00am 24.8 30.2 23.2 91 1.1 CALM 0 2 0 1 1011.8 1011.7 0.0
23/02:30am 25.2 30.3 23.4 90 1.2 SSW 2 2 1 1 1011.8 1011.7 0.0
23/02:00am 25.4 29.9 23.6 90 1.2 SW 6 6 3 3 1011.8 1011.7 0.0
23/01:30am 25.4 30.8 23.8 91 1.1 NNW 2 6 1 3 1012.0 1011.9 0.0
23/01:00am 25.6 30.1 23.7 89 1.3 SW 6 7 3 4 1012.0 1011.9 0.0
23/12:30am 25.6 31.2 23.5 88 1.4 CALM 0 0 0 0 1012.1 1012.0 0.0
23/12:00am 25.8 31.4 23.5 87 1.6 CALM 0 0 0 0 1012.1 1012.0 0.0
 
Date/Time
CST
Tmp

°C
App
Tmp
°C
Dew
Point
°C
Rel
Hum
%
Delta-T

°C
Wind Press
QNH
hPa
Press
MSL
hPa
Rain
since
9 am
mm
Dir
 
Spd
km/h
Gust
km/h
Spd
kts
Gust
kts
22/11:30pm 25.9 30.5 23.8 88 1.4 SW 6 6 3 3 1012.2 1012.1 0.0
22/11:00pm 25.6 30.8 22.9 85 1.8 CALM 0 0 0 0 1012.2 1012.1 0.0
22/10:30pm 26.0 31.3 23.1 84 2.0 CALM 0 0 0 0 1012.1 1012.0 0.0
22/10:00pm 26.4 31.3 23.1 82 2.2 SW 2 2 1 1 1012.2 1012.1 0.0
22/09:30pm 26.6 31.4 22.9 80 2.5 SW 2 2 1 1 1012.0 1011.9 0.0
22/09:00pm 27.1 31.6 22.9 78 2.9 SW 4 6 2 3 1012.0 1011.9 0.0
22/08:30pm 27.3 31.9 23.1 78 2.9 W 4 6 2 3 1011.4 1011.3 0.0
22/08:00pm 28.0 32.6 23.2 75 3.3 NW 4 4 2 2 1011.0 1010.9 0.0
22/07:30pm 28.5 33.0 23.0 72 3.8 NNW 4 7 2 4 1010.6 1010.5 0.0
22/07:00pm 29.1 33.1 23.1 70 4.1 NNW 7 13 4 7 1010.4 1010.3 0.0
22/06:30pm 30.5 34.4 22.9 64 5.2 NNE 7 15 4 8 1010.1 1010.0 0.0
22/06:00pm 32.5 36.3 21.7 53 7.3 ENE 4 4 2 2 1009.7 1009.6 0.0
22/05:30pm 33.5 36.7 21.3 48 8.3 E 6 9 3 5 1009.5 1009.4 0.0
22/05:00pm 33.4 35.9 20.2 46 8.8 E 7 11 4 6 1009.4 1009.3 0.0

Latest Capital City Observations: Canberra | Sydney | Melbourne | Brisbane | Adelaide | Perth | Hobart | Darwin

Other Formats:

Comma delimited format used in spreadsheet applications
http://www.bom.gov.au/fwo/IDD60901/IDD60901.94105.axf

JavaScript Object Notation format (JSON) in row-major order
http://www.bom.gov.au/fwo/IDD60901/IDD60901.94105.json